• Join FlightAware (Why Join?)
  • Login
  • US Flag 
11:25AM EDT


 

Airport Tracker/Info


-or-


 

Live Flight TrackerFlight Track Log ✈ SWA1729 ✈ 16-Apr-2013 ✈ KBNA - KHOU

Flight Track Log - Related Links

Times and Time Zones

All times are in EDT time to prevent confusion due to time zone crossing. See the SWA1729 flight status page for this flight to view local times or setup timezone preferences in your user account.

Time Position Orientation Groundspeed Altitude Reporting Facility
EDT Latitude Longitude Course Direction KTS MPH feet Rate Location/Type
08:12PM 36.1000 -86.6833 256° West 153 176 1,500  Level Nashville TRACON
08:13PM 36.0833 -86.7667 256° West 248 285 4,100 2,760 Climbing Nashville TRACON
08:14PM 36.1000 -86.8833 280° West 260 299 8,400 2,940 Climbing Nashville TRACON
08:15PM 36.0911 -86.9589 262° West 256 295 10,400 2,160 Climbing Memphis Center
08:16PM 36.0961 -87.0692 273° West 285 328 12,400 2,460 Climbing Memphis Center
08:17PM 36.0972 -87.1844 271° West 326 375 15,400 2,460 Climbing Memphis Center
08:18PM 36.0853 -87.2903 262° West 348 400 17,400 1,920 Climbing Memphis Center
08:19PM 36.0589 -87.4144 255° West 360 414 19,300 1,980 Climbing Memphis Center
08:20PM 36.0347 -87.5411 257° West 371 427 21,400 1,860 Climbing Memphis Center
08:21PM 36.0106 -87.6678 257° West 376 433 23,100 1,680 Climbing Memphis Center
08:22PM 35.9800 -87.8047 255° West 398 458 24,800 1,620 Climbing Memphis Center
08:23PM 35.9431 -87.9317 250° West 398 458 26,400 1,740 Climbing Memphis Center
08:24PM 35.8850 -88.0689 242° Southwest 409 471 28,300 1,860 Climbing Memphis Center
08:25PM 35.8369 -88.1703 240° Southwest 404 465 30,200 1,440 Climbing Memphis Center
08:26PM 35.7806 -88.2919 240° Southwest 397 457 31,200 1,200 Climbing Memphis Center
08:27PM 35.7283 -88.4136 242° Southwest 403 464 32,700 1,500 Climbing Memphis Center
08:28PM 35.6758 -88.5297 241° Southwest 397 457 34,300 1,500 Climbing Memphis Center
08:29PM 35.6253 -88.6406 241° Southwest 391 450 35,700 840 Climbing Memphis Center
08:30PM 35.5728 -88.7542 240° Southwest 391 450 36,000 120 Climbing Memphis Center
08:31PM 35.5219 -88.8750 243° Southwest 379 436 36,000  Level Memphis Center
08:32PM 35.4711 -88.9881 241° Southwest 379 436 36,000  Level Memphis Center
08:33PM 35.4264 -89.0856 241° Southwest 374 430 36,000  Level Memphis Center
08:34PM 35.3772 -89.1958 241° Southwest 374 430 36,000  Level Memphis Center
08:35PM 35.3261 -89.3086 241° Southwest 374 430 36,000  Level Memphis Center
08:36PM 35.2769 -89.4161 241° Southwest 374 430 36,000  Level Memphis Center
08:37PM 35.2278 -89.5283 242° Southwest 374 430 36,000  Level Memphis Center
08:38PM 35.1806 -89.6356 242° Southwest 374 430 36,000  Level Memphis Center
08:39PM 35.1289 -89.7453 240° Southwest 369 425 36,000  Level Memphis Center
08:40PM 35.0794 -89.8547 241° Southwest 369 425 36,000  Level Memphis Center
08:41PM 35.0297 -89.9642 241° Southwest 369 425 36,000  Level Memphis Center
08:42PM 34.9528 -90.0481 222° Southwest 374 430 36,000  Level Memphis Center
08:43PM 34.8694 -90.1242 217° Southwest 374 430 36,000  Level Memphis Center
08:44PM 34.7861 -90.2003 217° Southwest 379 436 36,000  Level Memphis Center
08:45PM 34.7028 -90.2764 217° Southwest 379 436 36,000  Level Memphis Center
08:46PM 34.6150 -90.3547 216° Southwest 371 427 36,000  Level Memphis Center
08:47PM 34.5317 -90.4303 217° Southwest 371 427 36,000  Level Memphis Center
08:48PM 34.4522 -90.5033 217° Southwest 366 421 36,000  Level Memphis Center
08:49PM 34.3708 -90.5736 215° Southwest 366 421 36,000  Level Memphis Center
08:50PM 34.2892 -90.6486 217° Southwest 366 421 36,000  Level Memphis Center
08:51PM 34.2078 -90.7214 216° Southwest 366 421 36,000  Level Memphis Center
08:52PM 34.1261 -90.7989 218° Southwest 366 421 36,000  Level Memphis Center
08:53PM 34.0464 -90.8686 216° Southwest 366 421 36,000  Level Memphis Center
08:54PM 33.9647 -90.9433 217° Southwest 366 421 36,000  Level Memphis Center
08:55PM 33.8831 -91.0128 215° Southwest 366 421 36,000  Level Memphis Center
08:56PM 33.8053 -91.0872 219° Southwest 361 415 36,000  Level Memphis Center
08:57PM 33.7256 -91.1564 216° Southwest 361 415 36,000  Level Memphis Center
08:58PM 33.6458 -91.2256 216° Southwest 361 415 36,000  Level Memphis Center
08:59PM 33.5661 -91.2969 217° Southwest 361 415 36,000  Level Memphis Center
09:00PM 33.4861 -91.3686 217° Southwest 361 415 36,000  Level Memphis Center
09:02PM 33.3394 -91.5036 218° Southwest 341 392 36,000  Level Fort Worth Center
09:03PM 33.2531 -91.5764 215° Southwest 354 407 36,000  Level Fort Worth Center
09:04PM 33.1706 -91.6464 215° Southwest 360 414 36,000  Level Fort Worth Center
09:05PM 33.0950 -91.7231 220° Southwest 373 429 36,000  Level Fort Worth Center
09:06PM 33.0256 -91.8069 225° Southwest 373 429 36,000  Level Fort Worth Center
09:07PM 32.9481 -91.8908 222° Southwest 366 421 36,000  Level Fort Worth Center
09:08PM 32.8764 -91.9719 224° Southwest 366 421 36,000  Level Fort Worth Center
09:09PM 32.8047 -92.0531 224° Southwest 366 421 36,000  Level Fort Worth Center
09:10PM 32.7267 -92.1342 221° Southwest 361 415 36,000  Level Fort Worth Center
09:11PM 32.6711 -92.2017 226° Southwest 366 421 36,000  Level Fort Worth Center
09:12PM 32.5833 -92.2978 223° Southwest 376 433 36,000  Level Fort Worth Center
09:14PM 32.4303 -92.4628 222° Southwest 369 425 36,000  Level Houston Center
09:15PM 32.3547 -92.5442 222° Southwest 368 423 36,000  Level Houston Center
09:16PM 32.2806 -92.6264 223° Southwest 367 422 36,000  Level Houston Center
09:17PM 32.2058 -92.7064 222° Southwest 365 420 36,000  Level Houston Center
09:18PM 32.1311 -92.7878 223° Southwest 366 421 36,000  Level Houston Center
09:19PM 32.0414 -92.8853 223° Southwest 367 422 36,000  Level Houston Center
09:20PM 31.9664 -92.9653 222° Southwest 366 421 36,000  Level Houston Center
09:21PM 31.8922 -93.0467 223° Southwest 365 420 36,000  Level Houston Center
09:22PM 31.8158 -93.1286 222° Southwest 369 425 36,000  Level Houston Center
09:23PM 31.7414 -93.2092 223° Southwest 369 425 36,000  Level Houston Center
09:24PM 31.6661 -93.2881 222° Southwest 366 421 36,000  Level Houston Center
09:25PM 31.5917 -93.3678 222° Southwest 363 418 36,000  Level Houston Center
09:26PM 31.5156 -93.4478 222° Southwest 367 422 36,000  Level Houston Center
09:27PM 31.4256 -93.5433 222° Southwest 366 421 36,000  Level Houston Center
09:28PM 31.3472 -93.6261 222° Southwest 367 422 36,000  Level Houston Center
09:29PM 31.2706 -93.7061 222° Southwest 367 422 36,000  Level Houston Center
09:30PM 31.1944 -93.7858 222° Southwest 367 422 36,000  Level Houston Center
09:31PM 31.1172 -93.8669 222° Southwest 370 426 36,000  Level Houston Center
09:32PM 31.0406 -93.9467 222° Southwest 368 423 36,000  Level Houston Center
09:33PM 30.9625 -94.0250 221° Southwest 368 423 36,000 -780 Level Houston Center
09:34PM 30.9306 -94.0581 222° Southwest 370 426 34,900 -3,120 Descending Houston Center
09:34PM 30.8825 -94.1028 219° Southwest 370 426 32,800 -3,600 Descending Houston Center
09:35PM 30.8464 -94.1400 222° Southwest 373 429 31,300 -3,360 Descending Houston Center
09:35PM 30.8008 -94.1831 219° Southwest 378 435 29,400 -3,300 Descending Houston Center
09:36PM 30.7736 -94.2108 221° Southwest 383 441 28,300 -3,300 Descending Houston Center
09:36PM 30.7178 -94.2636 219° Southwest 384 442 26,100 -2,760 Descending Houston Center
09:37PM 30.6333 -94.3447 220° Southwest 390 449 23,500 -2,220 Descending Houston Center
09:38PM 30.5469 -94.4283 220° Southwest 401 461 21,700 -1,980 Descending Houston Center
09:39PM 30.5147 -94.4611 221° Southwest 417 480 21,000 -1,980 Descending Houston Center
09:39PM 30.4583 -94.5139 219° Southwest 411 473 19,700 -2,100 Descending Houston Center
09:40PM 30.4225 -94.5508 222° Southwest 400 460 18,900 -1,560 Descending Houston Center
09:41PM 30.3492 -94.6183 218° Southwest 367 422 17,900 -1,260 Descending Houston Center
09:42PM 30.2686 -94.6967 220° Southwest 371 427 16,500 -2,040 Descending Houston Center
09:43PM 30.1897 -94.7744 220° Southwest 365 420 13,900 -2,460 Descending Houston Center
09:44PM 30.1417 -94.8414 230° Southwest 356 410 11,900 -2,100 Descending Houston Center
09:45PM 30.0781 -94.9258 229° Southwest 351 404 9,900 -960 Descending Houston Center
09:46PM 30.0147 -95.0089 229° Southwest 297 342 10,000  Climbing Houston Center
09:47PM 29.9681 -95.0706 229° Southwest 302 348 9,900 -960 Descending Houston Center
09:48PM 29.9181 -95.1372 229° Southwest 281 323 8,100 -1,860 Descending Houston Center
09:49PM 29.8692 -95.2269 238° Southwest 278 320 6,200 -1,680 Descending Houston Center
09:50PM 29.8472 -95.3092 253° West 268 308 4,700 -1,200 Descending Houston Center
09:51PM 29.8300 -95.3908 256° West 269 310 3,800 -780 Descending Houston Center
09:51PM 29.8206 -95.4086 239° Southwest 231 266 3,700 -540 Descending Houston Center
09:52PM 29.7942 -95.4408 227° Southwest 186 214 3,300 -780 Descending Houston Center
09:53PM 29.7558 -95.4117 147° Southeast 149 171 2,400 -660 Descending Houston Center
09:54PM 29.7283 -95.3783 134° Southeast 168 193 2,000 -540 Descending Houston Center
09:55PM 29.6986 -95.3425 134° Southeast 162 186 1,400 -600 Descending Houston Center
09:56PM 29.6756 -95.3131 132° Southeast 96 110 800 -540 Descending Houston Center
09:57PM 29.6575 -95.2942 138° Southeast 113 130 300 -540 Descending Houston Center
09:59PM 29.6454 -95.2789 191° South  Level Estimated